Time;durP1;ratioP1;P1;durP2;ratioP2;P2;SDS_P1;SDS_P2;PMS_P1;PMS_P2;Temp;Humidity;BMP_temperature;BMP_pressure;BME280_temperature;BME280_humidity;BME280_pressure;Samples;Min_cycle;Max_cycle;Signal;HPM_P1;HPM_P2
2022/01/31 00:02:26;;;;;;;6.05;2.95;;;;;11.40;101244.00;;;;5075814;28;20710;-78
2022/01/31 00:04:53;;;;;;;7.30;3.08;;;;;11.40;101230.00;;;;5081045;28;20408;-77
2022/01/31 00:07:20;;;;;;;5.80;2.90;;;;;11.40;101219.00;;;;5076407;28;20199;-78
2022/01/31 00:09:49;;;;;;;5.55;2.92;;;;;11.40;101206.00;;;;5069733;28;20195;-78
2022/01/31 00:12:19;;;;;;;7.80;2.45;;;;;11.40;101199.00;;;;5068828;28;20221;-78
2022/01/31 00:14:49;;;;;;;5.95;2.50;;;;;11.40;101185.00;;;;5068598;28;20230;-78
2022/01/31 00:17:18;;;;;;;9.60;2.50;;;;;11.40;101174.00;;;;5079870;28;20281;-78
2022/01/31 00:19:45;;;;;;;6.93;2.65;;;;;11.50;101159.00;;;;5087434;28;20195;-77
2022/01/31 00:22:14;;;;;;;8.43;2.95;;;;;11.50;101150.00;;;;5072999;28;20726;-77
2022/01/31 00:24:42;;;;;;;8.52;2.42;;;;;11.50;101139.00;;;;5089210;28;20285;-78
2022/01/31 00:27:10;;;;;;;11.85;2.40;;;;;11.50;101125.00;;;;5089620;28;20202;-78
2022/01/31 00:29:38;;;;;;;5.68;2.47;;;;;11.50;101115.00;;;;5079194;28;20252;-77
2022/01/31 00:32:06;;;;;;;6.78;2.85;;;;;11.50;101103.00;;;;5077945;28;20206;-78
2022/01/31 00:34:33;;;;;;;6.80;2.33;;;;;11.50;101091.00;;;;5083509;28;20217;-77
2022/01/31 00:37:01;;;;;;;5.25;2.63;;;;;11.50;101077.00;;;;5088614;28;20195;-77
2022/01/31 00:39:28;;;;;;;3.92;2.45;;;;;11.50;101075.00;;;;5089941;28;20190;-78
2022/01/31 00:41:55;;;;;;;3.53;1.95;;;;;11.50;101070.00;;;;5090354;28;20190;-77
2022/01/31 00:44:28;;;;;;;7.25;2.40;;;;;11.50;101059.00;;;;5091276;28;20582;-78
2022/01/31 00:46:59;;;;;;;3.20;2.20;;;;;11.60;101058.00;;;;5091183;28;20190;-78
2022/01/31 00:49:36;;;;;;;6.63;3.05;;;;;11.60;101048.00;;;;5091592;28;20237;-77
2022/01/31 00:52:05;;;;;;;4.00;2.28;;;;;11.50;101040.00;;;;5077724;28;20204;-78
2022/01/31 00:54:33;;;;;;;9.23;3.00;;;;;11.60;101045.00;;;;5091135;28;20203;-80
2022/01/31 00:57:00;;;;;;;6.05;2.58;;;;;11.60;101029.00;;;;5073645;28;20202;-80
2022/01/31 00:59:28;;;;;;;3.95;2.70;;;;;11.60;101014.00;;;;5074914;28;20202;-80
2022/01/31 01:01:55;;;;;;;7.80;2.70;;;;;11.60;101000.00;;;;5101024;28;20854;-79
2022/01/31 01:04:24;;;;;;;7.72;2.72;;;;;11.50;101001.00;;;;5102177;28;20199;-79
2022/01/31 01:06:51;;;;;;;5.60;2.95;;;;;11.50;100982.00;;;;5107393;28;20190;-79
2022/01/31 01:09:18;;;;;;;8.07;3.08;;;;;11.50;100966.00;;;;5104953;28;20663;-79
2022/01/31 01:11:46;;;;;;;9.60;3.22;;;;;11.50;100962.00;;;;5101516;28;20221;-80
2022/01/31 01:14:14;;;;;;;7.65;3.08;;;;;11.40;100958.00;;;;5098986;28;20175;-80
2022/01/31 01:16:43;;;;;;;6.57;3.00;;;;;11.40;100943.00;;;;5094105;28;20657;-79
2022/01/31 01:19:10;;;;;;;6.22;3.00;;;;;11.40;100936.00;;;;5104578;28;20187;-80
2022/01/31 01:21:38;;;;;;;6.10;2.65;;;;;11.40;100924.00;;;;5092835;28;20198;-80
2022/01/31 01:24:05;;;;;;;7.28;3.03;;;;;11.40;100905.00;;;;5098382;28;20218;-80
2022/01/31 01:26:33;;;;;;;6.93;3.28;;;;;11.40;100896.00;;;;5104402;28;20197;-79
2022/01/31 01:29:00;;;;;;;4.68;2.78;;;;;11.40;100888.00;;;;5089615;28;20195;-80
2022/01/31 01:31:28;;;;;;;9.05;3.35;;;;;11.40;100872.00;;;;5086186;28;20195;-81
2022/01/31 01:33:56;;;;;;;9.32;3.28;;;;;11.40;100851.00;;;;5096383;28;20217;-80
2022/01/31 01:36:23;;;;;;;9.93;3.47;;;;;11.40;100861.00;;;;5099774;28;20248;-80
2022/01/31 01:38:51;;;;;;;4.85;2.60;;;;;11.40;100839.00;;;;5081453;28;20676;-81
2022/01/31 01:41:18;;;;;;;5.15;2.90;;;;;11.40;100839.00;;;;5092817;28;20198;-80
2022/01/31 01:43:45;;;;;;;5.95;2.75;;;;;11.40;100813.00;;;;5086976;28;20280;-80
2022/01/31 01:46:13;;;;;;;4.22;2.85;;;;;11.40;100806.00;;;;5075696;28;20621;-80
2022/01/31 01:48:40;;;;;;;5.82;3.05;;;;;11.40;100804.00;;;;5075876;28;20195;-81
2022/01/31 01:51:09;;;;;;;7.10;3.38;;;;;11.40;100797.00;;;;5097408;28;20190;-79
2022/01/31 01:53:36;;;;;;;6.13;2.15;;;;;11.40;100781.00;;;;5095305;28;21928;-81
2022/01/31 01:56:03;;;;;;;6.22;2.65;;;;;11.40;100775.00;;;;5076623;28;20187;-80
2022/01/31 01:58:38;;;;;;;8.77;2.60;;;;;11.40;100773.00;;;;5081477;28;20194;-81
2022/01/31 02:01:06;;;;;;;5.57;2.92;;;;;11.40;100772.00;;;;5082916;28;20190;-80
2022/01/31 02:03:35;;;;;;;7.03;2.42;;;;;11.40;100760.00;;;;5094553;28;20226;-80
2022/01/31 02:06:03;;;;;;;4.53;1.90;;;;;11.40;100757.00;;;;5094515;28;20195;-80
2022/01/31 02:08:39;;;;;;;3.85;2.05;;;;;11.40;100751.00;;;;5093389;28;20201;-80
2022/01/31 02:11:07;;;;;;;5.13;1.83;;;;;11.50;100763.00;;;;5082104;28;20217;-81
2022/01/31 02:13:36;;;;;;;2.78;1.48;;;;;11.50;100736.00;;;;5074478;28;20195;-81
2022/01/31 02:16:05;;;;;;;4.30;1.55;;;;;11.50;100738.00;;;;5085460;28;20237;-81
2022/01/31 02:18:32;;;;;;;4.13;1.83;;;;;11.50;100727.00;;;;5094224;28;20209;-81
2022/01/31 02:21:03;;;;;;;3.63;1.40;;;;;11.50;100711.00;;;;5086210;28;20246;-81
2022/01/31 02:23:31;;;;;;;2.95;1.85;;;;;11.60;100704.00;;;;5077598;28;20229;-81
2022/01/31 02:26:01;;;;;;;2.75;1.45;;;;;11.60;100700.00;;;;5082255;28;20810;-81
2022/01/31 02:28:30;;;;;;;4.35;1.38;;;;;11.60;100689.00;;;;5073787;28;20583;-81
2022/01/31 02:30:58;;;;;;;3.60;1.50;;;;;11.60;100687.00;;;;5087626;28;20195;-81
2022/01/31 02:33:26;;;;;;;2.63;1.40;;;;;11.70;100687.00;;;;5093374;28;20216;-81
2022/01/31 02:35:56;;;;;;;3.78;1.27;;;;;11.70;100678.00;;;;5099295;28;20225;-81
2022/01/31 02:38:25;;;;;;;3.65;1.65;;;;;11.70;100694.00;;;;5094086;28;22128;-80
2022/01/31 02:40:52;;;;;;;3.40;1.25;;;;;11.70;100683.00;;;;5102041;28;20190;-81
2022/01/31 02:43:21;;;;;;;3.22;1.67;;;;;11.70;100686.00;;;;5102851;28;20218;-81
2022/01/31 02:45:50;;;;;;;4.07;1.38;;;;;11.80;100680.00;;;;5106981;28;20197;-81
2022/01/31 02:48:20;;;;;;;5.55;1.70;;;;;11.80;100684.00;;;;5108070;28;20191;-81
2022/01/31 02:50:47;;;;;;;3.45;1.40;;;;;11.90;100676.00;;;;5098573;28;20203;-81
2022/01/31 02:53:23;;;;;;;4.75;1.40;;;;;11.90;100671.00;;;;5089808;28;20186;-81
2022/01/31 02:55:52;;;;;;;11.27;2.30;;;;;11.90;100660.00;;;;5084796;28;20197;-80
2022/01/31 02:58:20;;;;;;;5.78;1.80;;;;;11.90;100655.00;;;;5089839;28;20187;-81
2022/01/31 03:00:48;;;;;;;7.65;1.75;;;;;12.00;100643.00;;;;5085149;28;20475;-81
2022/01/31 03:03:15;;;;;;;3.50;1.23;;;;;12.00;100660.00;;;;5099258;28;20218;-82
2022/01/31 03:05:43;;;;;;;5.50;1.17;;;;;12.00;100652.00;;;;5103018;28;20209;-80
2022/01/31 03:08:11;;;;;;;4.63;1.20;;;;;12.00;100652.00;;;;5097924;28;20194;-80
2022/01/31 03:10:38;;;;;;;3.55;1.23;;;;;12.10;100651.00;;;;5095335;28;20198;-81
2022/01/31 03:13:07;;;;;;;7.28;1.77;;;;;12.10;100639.00;;;;5086148;28;20206;-79
2022/01/31 03:15:35;;;;;;;3.42;1.30;;;;;12.20;100653.00;;;;5082783;28;20205;-79
2022/01/31 03:18:04;;;;;;;4.53;1.15;;;;;12.20;100640.00;;;;5082335;28;20209;-79
2022/01/31 03:20:31;;;;;;;5.00;1.60;;;;;12.20;100637.00;;;;5075631;28;20197;-80
2022/01/31 03:22:59;;;;;;;4.25;1.00;;;;;12.30;100635.00;;;;5086781;28;20198;-79
2022/01/31 03:25:27;;;;;;;4.25;1.42;;;;;12.30;100638.00;;;;5085545;28;20317;-79
2022/01/31 03:27:55;;;;;;;5.30;1.25;;;;;12.30;100633.00;;;;5088077;28;20217;-79
2022/01/31 03:30:25;;;;;;;5.15;1.42;;;;;12.30;100618.00;;;;5088430;28;20206;-80
2022/01/31 03:32:52;;;;;;;4.22;1.48;;;;;12.40;100641.00;;;;5101837;28;20238;-81
2022/01/31 03:35:20;;;;;;;2.38;1.13;;;;;12.30;100620.00;;;;5085995;28;20230;-79
2022/01/31 03:37:47;;;;;;;9.50;1.40;;;;;12.40;100614.00;;;;5087139;28;20198;-79
2022/01/31 03:40:15;;;;;;;5.43;1.48;;;;;12.30;100622.00;;;;5092070;28;20214;-79
2022/01/31 03:42:42;;;;;;;4.10;0.73;;;;;12.40;100633.00;;;;5095881;28;20547;-77
2022/01/31 03:45:12;;;;;;;9.70;1.77;;;;;12.40;100607.00;;;;5095171;28;20226;-79
2022/01/31 03:47:45;;;;;;;3.58;0.95;;;;;12.40;100607.00;;;;5072121;28;20669;-79
2022/01/31 03:50:14;;;;;;;7.90;1.35;;;;;12.40;100593.00;;;;5088469;28;20206;-79
2022/01/31 03:52:42;;;;;;;5.53;1.25;;;;;12.40;100601.00;;;;5095998;28;20197;-79
2022/01/31 03:55:10;;;;;;;6.20;1.20;;;;;12.40;100604.00;;;;5100485;28;20206;-79
2022/01/31 03:57:38;;;;;;;7.30;1.00;;;;;12.40;100603.00;;;;5097243;28;20209;-79
2022/01/31 04:00:08;;;;;;;6.10;1.33;;;;;12.40;100605.00;;;;5096335;28;20182;-79
2022/01/31 04:02:35;;;;;;;7.20;1.58;;;;;12.40;100601.00;;;;5090855;28;20251;-77
2022/01/31 04:05:05;;;;;;;5.53;1.23;;;;;12.40;100588.00;;;;5093627;28;20210;-79
2022/01/31 04:07:32;;;;;;;4.97;0.90;;;;;12.40;100586.00;;;;5095692;28;20686;-79
2022/01/31 04:09:59;;;;;;;3.97;0.70;;;;;12.40;100583.00;;;;5087923;28;20194;-78
2022/01/31 04:12:27;;;;;;;1.83;0.77;;;;;12.40;100588.00;;;;5085389;28;20681;-78
2022/01/31 04:14:54;;;;;;;6.53;1.40;;;;;12.40;100611.00;;;;5105683;28;20198;-78
2022/01/31 04:17:22;;;;;;;9.48;2.03;;;;;12.40;100578.00;;;;5092046;28;20201;-77
2022/01/31 04:19:49;;;;;;;5.88;1.00;;;;;12.40;100590.00;;;;5094364;28;20182;-78
2022/01/31 04:22:20;;;;;;;2.47;0.88;;;;;12.40;100581.00;;;;5096260;28;20194;-78
2022/01/31 04:24:53;;;;;;;2.92;0.70;;;;;12.50;100572.00;;;;5106449;28;20297;-78
2022/01/31 04:27:20;;;;;;;4.10;0.88;;;;;12.50;100571.00;;;;5107186;28;20197;-78
2022/01/31 04:29:49;;;;;;;5.70;1.45;;;;;12.50;100560.00;;;;5087875;28;20242;-79
2022/01/31 04:32:16;;;;;;;6.38;1.33;;;;;12.50;100565.00;;;;5087436;28;20632;-76
2022/01/31 04:34:44;;;;;;;8.32;1.45;;;;;12.40;100552.00;;;;5098901;28;20230;-78
2022/01/31 04:37:11;;;;;;;4.15;1.05;;;;;12.40;100565.00;;;;5088725;28;20652;-77
2022/01/31 04:39:40;;;;;;;5.30;0.85;;;;;12.40;100558.00;;;;5084662;28;20285;-77
2022/01/31 04:42:08;;;;;;;6.90;1.48;;;;;12.40;100561.00;;;;5087866;28;20215;-79
2022/01/31 04:44:36;;;;;;;3.60;0.82;;;;;12.40;100558.00;;;;5097312;28;20225;-77
2022/01/31 04:47:04;;;;;;;4.13;1.00;;;;;12.40;100553.00;;;;5109392;28;20668;-77
2022/01/31 04:49:33;;;;;;;2.78;0.65;;;;;12.40;100559.00;;;;5106981;28;20213;-78
2022/01/31 04:52:01;;;;;;;4.85;1.85;;;;;12.40;100561.00;;;;5104476;28;20520;-78
2022/01/31 04:54:28;;;;;;;6.60;1.27;;;;;12.40;100551.00;;;;5097978;28;20736;-78
2022/01/31 04:56:57;;;;;;;4.40;1.38;;;;;12.40;100542.00;;;;5092754;28;20194;-78
2022/01/31 04:59:24;;;;;;;6.03;1.83;;;;;12.40;100549.00;;;;5088663;28;20266;-78
2022/01/31 05:01:52;;;;;;;4.45;0.90;;;;;12.40;100543.00;;;;5079561;28;20210;-78
2022/01/31 05:04:19;;;;;;;6.78;1.25;;;;;12.40;100523.00;;;;5085999;28;20715;-78
2022/01/31 05:06:48;;;;;;;3.05;1.15;;;;;12.40;100522.00;;;;5097129;28;20187;-79
2022/01/31 05:09:15;;;;;;;4.07;1.10;;;;;12.40;100547.00;;;;5091571;28;20198;-77
2022/01/31 05:11:43;;;;;;;9.55;1.60;;;;;12.40;100512.00;;;;5093906;28;20248;-78
2022/01/31 05:14:11;;;;;;;3.90;0.82;;;;;12.40;100507.00;;;;5095691;28;20244;-79
2022/01/31 05:16:39;;;;;;;4.28;1.23;;;;;12.30;100564.00;;;;5097190;28;20198;-79
2022/01/31 05:19:07;;;;;;;7.47;1.30;;;;;12.30;100551.00;;;;5099841;28;20210;-79
2022/01/31 05:21:34;;;;;;;6.50;0.90;;;;;12.10;100581.00;;;;5094420;28;20194;-80
2022/01/31 05:24:03;;;;;;;4.80;0.85;;;;;11.90;100569.00;;;;5081655;28;20222;-80
2022/01/31 05:26:30;;;;;;;3.97;0.90;;;;;11.80;100557.00;;;;5096436;28;20218;-79
2022/01/31 05:28:57;;;;;;;1.63;0.68;;;;;11.60;100573.00;;;;5090671;28;20196;-79
2022/01/31 05:31:26;;;;;;;3.40;0.88;;;;;11.40;100558.00;;;;5097169;28;20197;-79
2022/01/31 05:33:53;;;;;;;3.13;0.60;;;;;11.40;100537.00;;;;5098759;28;20675;-80
2022/01/31 05:36:21;;;;;;;3.30;0.57;;;;;11.30;100544.00;;;;5096870;28;20222;-79
2022/01/31 05:38:48;;;;;;;4.53;1.30;;;;;11.20;100518.00;;;;5093132;28;20199;-78
2022/01/31 05:41:19;;;;;;;2.60;0.75;;;;;11.10;100501.00;;;;5093275;28;20667;-78
2022/01/31 05:43:48;;;;;;;5.75;1.27;;;;;11.00;100503.00;;;;5081175;28;20693;-79
2022/01/31 05:46:15;;;;;;;5.40;1.38;;;;;11.00;100486.00;;;;5086763;28;20201;-78
2022/01/31 05:48:44;;;;;;;3.72;0.80;;;;;10.90;100477.00;;;;5079752;28;20666;-77
2022/01/31 05:51:16;;;;;;;9.30;1.42;;;;;10.90;100492.00;;;;5071085;28;20205;-79
2022/01/31 05:53:43;;;;;;;5.00;0.68;;;;;10.90;100488.00;;;;5083888;28;20583;-79
2022/01/31 05:56:11;;;;;;;5.95;1.00;;;;;10.90;100473.00;;;;5073487;28;20195;-79
2022/01/31 05:58:38;;;;;;;7.05;1.70;;;;;10.90;100497.00;;;;5095167;28;20202;-78
2022/01/31 06:01:06;;;;;;;7.75;1.50;;;;;10.90;100488.00;;;;5097863;28;20202;-78
2022/01/31 06:03:33;;;;;;;9.40;1.17;;;;;11.00;100478.00;;;;5092438;28;20193;-78
2022/01/31 06:06:02;;;;;;;8.40;1.58;;;;;11.00;100482.00;;;;5089360;28;20194;-78
2022/01/31 06:08:29;;;;;;;7.03;1.45;;;;;11.00;100483.00;;;;5088876;28;20190;-78
2022/01/31 06:10:57;;;;;;;5.45;1.00;;;;;11.10;100494.00;;;;5094657;28;20649;-80
2022/01/31 06:13:28;;;;;;;5.85;1.55;;;;;11.10;100498.00;;;;5095964;28;20618;-79
2022/01/31 06:15:55;;;;;;;8.30;1.77;;;;;11.10;100497.00;;;;5085386;28;20227;-79
2022/01/31 06:18:23;;;;;;;4.63;1.20;;;;;11.10;100491.00;;;;5092420;28;20210;-79
2022/01/31 06:20:50;;;;;;;10.05;1.13;;;;;11.10;100510.00;;;;5087077;28;20221;-77
2022/01/31 06:23:18;;;;;;;7.28;1.25;;;;;11.10;100507.00;;;;5077357;28;20194;-78
2022/01/31 06:25:47;;;;;;;11.02;2.17;;;;;11.10;100505.00;;;;5072951;28;20226;-78
2022/01/31 06:28:14;;;;;;;4.97;1.05;;;;;11.10;100510.00;;;;5076007;28;20191;-79
2022/01/31 06:30:42;;;;;;;7.70;1.58;;;;;11.10;100499.00;;;;5098367;28;20221;-78
2022/01/31 06:33:09;;;;;;;8.75;1.33;;;;;11.10;100530.00;;;;5085039;28;20198;-78
2022/01/31 06:35:36;;;;;;;7.47;1.58;;;;;11.10;100497.00;;;;5084958;28;20307;-79
2022/01/31 06:38:03;;;;;;;8.68;2.03;;;;;11.10;100498.00;;;;5067891;28;20198;-79
2022/01/31 06:40:32;;;;;;;8.75;1.40;;;;;11.10;100490.00;;;;5087984;28;20205;-79
2022/01/31 06:42:59;;;;;;;6.47;1.20;;;;;11.10;100495.00;;;;5086467;28;20205;-78
2022/01/31 06:45:26;;;;;;;5.72;1.50;;;;;11.20;100499.00;;;;5088129;28;20218;-78
2022/01/31 06:47:54;;;;;;;12.88;1.85;;;;;11.20;100510.00;;;;5083935;28;20579;-80
2022/01/31 06:50:21;;;;;;;6.10;1.05;;;;;11.20;100487.00;;;;5090356;28;20233;-80
2022/01/31 06:52:51;;;;;;;7.13;1.67;;;;;11.20;100495.00;;;;5090775;28;20206;-80
2022/01/31 06:55:20;;;;;;;6.13;1.20;;;;;11.20;100499.00;;;;5089724;28;20620;-80
2022/01/31 06:57:51;;;;;;;7.55;1.58;;;;;11.10;100498.00;;;;5078035;28;20210;-80
2022/01/31 07:00:20;;;;;;;8.52;1.63;;;;;11.10;100503.00;;;;5074283;28;20195;-80
2022/01/31 07:02:48;;;;;;;8.00;1.98;;;;;11.10;100505.00;;;;5082538;28;20206;-79
2022/01/31 07:05:16;;;;;;;10.80;1.25;;;;;11.10;100505.00;;;;5088501;28;20226;-81
2022/01/31 07:07:44;;;;;;;8.57;1.33;;;;;11.00;100488.00;;;;5076268;28;20194;-82
2022/01/31 07:10:13;;;;;;;8.48;1.52;;;;;11.00;100474.00;;;;5076880;28;20191;-82
2022/01/31 07:12:47;;;;;;;6.78;1.40;;;;;11.00;100487.00;;;;5071645;28;20549;-80
2022/01/31 07:15:17;;;;;;;9.43;1.40;;;;;10.90;100488.00;;;;5068809;28;20209;-81
2022/01/31 07:17:46;;;;;;;6.13;1.52;;;;;10.90;100487.00;;;;5068055;28;20276;-81
2022/01/31 07:20:21;;;;;;;6.55;1.02;;;;;10.90;100463.00;;;;5068341;28;20294;-80
2022/01/31 07:22:55;;;;;;;7.75;1.23;;;;;10.90;100470.00;;;;5083207;28;20206;-81
2022/01/31 07:25:34;;;;;;;4.57;0.93;;;;;10.90;100472.00;;;;5084085;28;20226;-81
2022/01/31 07:28:02;;;;;;;8.68;1.50;;;;;10.90;100464.00;;;;5074614;28;20191;-82
2022/01/31 07:30:31;;;;;;;7.32;1.38;;;;;10.90;100469.00;;;;5068180;28;20270;-81
2022/01/31 07:32:58;;;;;;;5.72;1.38;;;;;10.90;100470.00;;;;5068426;28;20199;-82
2022/01/31 07:35:26;;;;;;;8.90;1.05;;;;;10.90;100495.00;;;;5067851;28;20227;-83
2022/01/31 07:37:53;;;;;;;12.43;2.33;;;;;10.90;100489.00;;;;5067923;28;20199;-83
2022/01/31 07:40:21;;;;;;;10.25;1.75;;;;;10.90;100475.00;;;;5088207;28;20687;-81
2022/01/31 07:42:48;;;;;;;12.93;1.65;;;;;10.90;100464.00;;;;5079331;28;20861;-79
2022/01/31 07:45:15;;;;;;;8.48;2.13;;;;;10.90;100482.00;;;;5073472;28;20237;-79
2022/01/31 07:47:44;;;;;;;7.95;1.70;;;;;10.80;100500.00;;;;5074929;28;20210;-78
2022/01/31 07:50:13;;;;;;;17.75;2.13;;;;;10.80;100472.00;;;;5077447;28;20222;-80
2022/01/31 07:52:40;;;;;;;3.53;1.00;;;;;10.80;100494.00;;;;5076365;28;20194;-79
2022/01/31 07:55:10;;;;;;;6.68;1.50;;;;;10.80;100487.00;;;;5075932;28;20194;-80
2022/01/31 07:57:38;;;;;;;9.27;1.38;;;;;10.80;100490.00;;;;5076647;28;20198;-79
2022/01/31 08:00:07;;;;;;;11.85;2.05;;;;;10.70;100506.00;;;;5074926;28;20264;-78
2022/01/31 08:02:35;;;;;;;11.52;2.50;;;;;10.70;100489.00;;;;5079814;28;20209;-78
2022/01/31 08:05:07;;;;;;;7.63;1.73;;;;;10.60;100466.00;;;;5075071;28;20225;-79
2022/01/31 08:07:34;;;;;;;13.57;1.85;;;;;10.70;100478.00;;;;5080638;28;20206;-79
2022/01/31 08:10:03;;;;;;;8.80;1.63;;;;;10.60;100469.00;;;;5083901;28;20198;-79
2022/01/31 08:12:31;;;;;;;9.82;1.48;;;;;10.70;100486.00;;;;5077730;28;20286;-77
2022/01/31 08:15:03;;;;;;;13.60;2.50;;;;;10.70;100488.00;;;;5069527;28;20225;-77
2022/01/31 08:17:31;;;;;;;10.18;1.92;;;;;10.70;100485.00;;;;5084717;28;20202;-79
2022/01/31 08:19:58;;;;;;;8.90;1.33;;;;;10.70;100494.00;;;;5087206;28;20205;-79
2022/01/31 08:22:26;;;;;;;10.57;1.73;;;;;10.70;100506.00;;;;5068882;28;20195;-78
2022/01/31 08:24:53;;;;;;;21.13;2.92;;;;;10.70;100524.00;;;;5075305;28;20219;-77
2022/01/31 08:27:22;;;;;;;5.20;1.20;;;;;10.70;100524.00;;;;5069193;28;20207;-79
2022/01/31 08:29:49;;;;;;;10.70;2.17;;;;;10.70;100520.00;;;;5086519;28;20752;-78
2022/01/31 08:32:22;;;;;;;6.50;1.45;;;;;10.70;100528.00;;;;5087940;28;20587;-79
2022/01/31 08:37:36;;;;;;;4.80;1.83;;;;;10.70;100503.00;;;;5078704;28;20206;-78
2022/01/31 08:40:03;;;;;;;7.57;1.85;;;;;10.70;100533.00;;;;5086195;28;20202;-79
2022/01/31 08:42:31;;;;;;;9.00;2.05;;;;;10.70;100510.00;;;;5079063;28;20664;-79
2022/01/31 08:44:58;;;;;;;11.60;2.03;;;;;10.70;100519.00;;;;5084133;28;20225;-80
2022/01/31 08:47:26;;;;;;;13.77;2.33;;;;;10.70;100528.00;;;;5085996;28;20213;-83
2022/01/31 08:49:53;;;;;;;18.88;2.30;;;;;10.70;100529.00;;;;5072617;28;20209;-82
2022/01/31 08:52:20;;;;;;;13.32;2.97;;;;;10.70;100511.00;;;;5085734;28;20217;-82
2022/01/31 08:54:49;;;;;;;13.50;2.78;;;;;10.60;100547.00;;;;5077871;28;20213;-83
2022/01/31 08:57:16;;;;;;;11.82;2.30;;;;;10.70;100540.00;;;;5078222;28;20198;-81
2022/01/31 08:59:50;;;;;;;23.15;2.38;;;;;10.70;100525.00;;;;5087065;28;20202;-81
2022/01/31 09:02:26;;;;;;;13.70;2.40;;;;;10.70;100536.00;;;;5085859;28;20293;-81
2022/01/31 09:04:54;;;;;;;9.77;2.30;;;;;10.80;100542.00;;;;5087103;28;20221;-82
2022/01/31 09:07:24;;;;;;;15.00;2.78;;;;;10.80;100549.00;;;;5085299;28;20202;-81
2022/01/31 09:09:54;;;;;;;13.05;2.85;;;;;10.80;100547.00;;;;5078011;28;20282;-83
2022/01/31 09:12:23;;;;;;;13.27;3.40;;;;;10.80;100573.00;;;;5083536;28;20225;-83
2022/01/31 09:14:50;;;;;;;12.27;2.42;;;;;10.80;100587.00;;;;5091078;28;20248;-84
2022/01/31 09:17:17;;;;;;;14.07;2.58;;;;;10.80;100557.00;;;;5090833;28;20210;-81
2022/01/31 09:19:45;;;;;;;10.52;2.70;;;;;10.90;100580.00;;;;5090173;28;20213;-82
2022/01/31 09:22:12;;;;;;;12.35;2.60;;;;;10.90;100552.00;;;;5091247;28;20218;-83
2022/01/31 09:24:40;;;;;;;9.95;2.40;;;;;10.90;100558.00;;;;5088179;28;20201;-83
2022/01/31 09:27:11;;;;;;;14.18;2.88;;;;;10.80;100564.00;;;;5078518;28;20190;-82
2022/01/31 09:29:38;;;;;;;9.85;1.98;;;;;10.90;100556.00;;;;5090815;28;20202;-84
2022/01/31 09:32:06;;;;;;;13.85;2.55;;;;;10.90;100560.00;;;;5090847;28;20198;-81
2022/01/31 09:34:34;;;;;;;14.27;2.25;;;;;10.90;100575.00;;;;5090629;28;20576;-83
2022/01/31 09:37:02;;;;;;;10.40;2.10;;;;;10.90;100588.00;;;;5082961;28;20537;-82
2022/01/31 09:39:30;;;;;;;14.38;3.28;;;;;10.90;100578.00;;;;5068836;28;20222;-81
2022/01/31 09:41:58;;;;;;;11.30;2.60;;;;;11.00;100588.00;;;;5070243;28;20206;-82
2022/01/31 09:44:40;;;;;;;12.35;3.38;;;;;10.90;100606.00;;;;5069160;28;20747;-81
2022/01/31 09:47:19;;;;;;;15.10;2.55;;;;;10.90;100603.00;;;;5077084;28;20281;-83
2022/01/31 09:49:47;;;;;;;13.25;2.88;;;;;10.90;100605.00;;;;5074523;28;20190;-82
2022/01/31 09:52:14;;;;;;;14.63;3.03;;;;;10.90;100607.00;;;;5070196;28;20661;-82
2022/01/31 09:54:42;;;;;;;13.50;2.50;;;;;10.90;100622.00;;;;5080909;28;20198;-81
2022/01/31 09:57:10;;;;;;;17.42;4.07;;;;;10.90;100615.00;;;;5090461;28;20199;-86
2022/01/31 09:59:38;;;;;;;26.15;4.18;;;;;10.90;100628.00;;;;5090114;28;20206;-85
2022/01/31 10:02:10;;;;;;;13.82;3.17;;;;;10.90;100659.00;;;;5090083;28;20202;-84
2022/01/31 10:04:42;;;;;;;18.15;3.75;;;;;11.00;100630.00;;;;5090772;28;20656;-84
2022/01/31 10:07:09;;;;;;;19.13;4.18;;;;;11.00;100647.00;;;;5089076;28;20233;-83
2022/01/31 10:09:36;;;;;;;15.98;3.42;;;;;11.00;100641.00;;;;5077293;28;20195;-84
2022/01/31 10:12:07;;;;;;;19.58;3.30;;;;;11.10;100644.00;;;;5089332;28;20202;-84
2022/01/31 10:17:25;;;;;;;12.27;2.45;;;;;11.20;100665.00;;;;5085492;28;20344;-82
2022/01/31 10:19:55;;;;;;;18.00;3.53;;;;;11.30;100700.00;;;;5086366;28;20190;-84
2022/01/31 10:22:23;;;;;;;18.45;3.78;;;;;11.30;100700.00;;;;5075917;28;20199;-85
2022/01/31 10:24:53;;;;;;;13.02;2.83;;;;;11.30;100712.00;;;;5070633;28;20280;-86
2022/01/31 10:27:23;;;;;;;19.52;3.05;;;;;11.30;100692.00;;;;5074340;28;20194;-85
2022/01/31 10:29:52;;;;;;;13.95;3.15;;;;;11.30;100703.00;;;;5086833;28;20588;-84
2022/01/31 10:32:26;;;;;;;17.20;3.53;;;;;11.30;100718.00;;;;5078661;28;20726;-84
2022/01/31 10:34:57;;;;;;;15.75;2.95;;;;;11.40;100709.00;;;;5083193;28;20194;-85
2022/01/31 10:37:26;;;;;;;21.80;3.45;;;;;11.40;100716.00;;;;5080728;28;20190;-83
2022/01/31 10:45:38;;;;;;;11.45;2.22;;;;;11.40;100723.00;;;;5084921;28;20290;-83
2022/01/31 10:51:44;;;;;;;15.93;3.05;;;;;11.40;100737.00;;;;5078432;28;20209;-83
2022/01/31 10:54:15;;;;;;;13.45;2.50;;;;;11.50;100737.00;;;;5078194;28;20553;-84
2022/01/31 10:56:44;;;;;;;12.55;2.90;;;;;11.50;100730.00;;;;5080348;28;20652;-86
2022/01/31 10:59:14;;;;;;;15.07;3.78;;;;;11.40;100744.00;;;;5085963;28;20210;-83
2022/01/31 11:01:43;;;;;;;14.10;2.95;;;;;11.40;100746.00;;;;5084299;28;20191;-85
2022/01/31 11:04:14;;;;;;;8.52;1.85;;;;;11.30;100749.00;;;;5086884;28;20202;-86
2022/01/31 11:06:44;;;;;;;13.15;2.70;;;;;11.30;100741.00;;;;5088469;28;20218;-84
2022/01/31 11:09:14;;;;;;;12.15;2.85;;;;;11.20;100756.00;;;;5084983;28;20206;-85
2022/01/31 11:11:46;;;;;;;15.95;2.97;;;;;11.10;100765.00;;;;5072918;28;20201;-84
2022/01/31 11:14:15;;;;;;;14.68;2.90;;;;;11.10;100749.00;;;;5083875;28;20273;-85
2022/01/31 11:16:47;;;;;;;20.15;3.55;;;;;11.10;100760.00;;;;5067933;28;20207;-84
2022/01/31 11:19:18;;;;;;;16.65;3.17;;;;;11.10;100761.00;;;;5070929;28;20210;-85
2022/01/31 11:21:48;;;;;;;15.20;3.15;;;;;11.00;100761.00;;;;5088745;28;20247;-88
2022/01/31 11:24:22;;;;;;;12.05;1.85;;;;;11.10;100774.00;;;;5088896;28;20719;-87
2022/01/31 11:26:52;;;;;;;10.10;2.05;;;;;11.10;100765.00;;;;5089524;28;20271;-85
2022/01/31 11:29:20;;;;;;;19.85;3.85;;;;;11.10;100765.00;;;;5090220;28;20229;-85
2022/01/31 11:31:48;;;;;;;13.25;2.83;;;;;11.10;100776.00;;;;5087970;28;20198;-88
2022/01/31 11:34:16;;;;;;;10.15;3.15;;;;;11.10;100792.00;;;;5091205;28;20202;-88
2022/01/31 11:36:47;;;;;;;17.80;3.53;;;;;11.10;100788.00;;;;5089275;28;20230;-87
2022/01/31 11:39:17;;;;;;;18.67;3.28;;;;;11.10;100771.00;;;;5088614;28;20202;-89
2022/01/31 11:41:52;;;;;;;15.32;3.28;;;;;11.10;100796.00;;;;5074463;28;20194;-85
2022/01/31 11:44:28;;;;;;;18.10;4.03;;;;;11.00;100780.00;;;;5090082;28;20571;-87
2022/01/31 11:46:57;;;;;;;13.75;3.17;;;;;11.10;100790.00;;;;5088403;28;20221;-87
2022/01/31 11:49:24;;;;;;;9.98;2.85;;;;;11.10;100788.00;;;;5073779;28;20199;-87
2022/01/31 11:52:08;;;;;;;20.17;4.38;;;;;11.00;100810.00;;;;5068712;28;20206;-86
2022/01/31 11:54:47;;;;;;;16.27;2.95;;;;;11.00;100803.00;;;;5079426;28;20198;-86
2022/01/31 11:57:17;;;;;;;12.63;1.90;;;;;11.10;100804.00;;;;5086841;28;20237;-86
2022/01/31 11:59:44;;;;;;;11.73;1.88;;;;;11.10;100792.00;;;;5084515;28;20189;-83
2022/01/31 12:02:16;;;;;;;17.08;3.20;;;;;11.10;100808.00;;;;5080964;28;20206;-87
2022/01/31 12:04:49;;;;;;;9.15;2.33;;;;;11.10;100819.00;;;;5087066;28;20206;-87
2022/01/31 12:07:39;;;;;;;10.52;2.13;;;;;11.00;100815.00;;;;5085479;28;20258;-85
2022/01/31 12:10:09;;;;;;;18.27;3.45;;;;;11.10;100851.00;;;;5075925;28;20620;-85
2022/01/31 12:12:48;;;;;;;13.35;2.47;;;;;11.00;100810.00;;;;5072407;28;20227;-84
2022/01/31 12:15:48;;;;;;;14.25;2.95;;;;;11.00;100813.00;;;;5072526;28;20225;-84
2022/01/31 12:18:58;;;;;;;16.17;3.28;;;;;11.00;100835.00;;;;5066860;28;20657;-85
2022/01/31 12:24:30;;;;;;;14.30;2.15;;;;;11.00;100837.00;;;;5085800;28;20696;-85
2022/01/31 12:27:07;;;;;;;12.65;2.92;;;;;11.00;100844.00;;;;5073325;28;20245;-82
2022/01/31 12:29:37;;;;;;;21.48;4.22;;;;;11.00;100847.00;;;;5081193;28;20194;-84
2022/01/31 12:32:15;;;;;;;13.93;2.85;;;;;11.00;100835.00;;;;5081910;28;20210;-86
2022/01/31 12:34:47;;;;;;;9.98;2.92;;;;;11.10;100844.00;;;;5081221;28;20656;-86